sensor_id;sensor_type;location;lat;lon;timestamp;pressure;altitude;pressure_sealevel;temperature;humidity
38780;BME280;29273;49.962;9.768;2022-09-02T00:00:33;100006.69;;;20.14;38.31
38780;BME280;29273;49.962;9.768;2022-09-02T00:02:58;100004.53;;;20.11;38.39
38780;BME280;29273;49.962;9.768;2022-09-02T00:05:24;100006.69;;;20.09;38.21
38780;BME280;29273;49.962;9.768;2022-09-02T00:07:50;99996.97;;;20.08;38.49
38780;BME280;29273;49.962;9.768;2022-09-02T00:10:15;99994.81;;;20.05;38.32
38780;BME280;29273;49.962;9.768;2022-09-02T00:12:41;99996.16;;;20.02;38.49
38780;BME280;29273;49.962;9.768;2022-09-02T00:15:07;99995.59;;;20.00;38.56
38780;BME280;29273;49.962;9.768;2022-09-02T00:17:32;99998.56;;;19.99;38.66
38780;BME280;29273;49.962;9.768;2022-09-02T00:19:58;99997.19;;;19.96;38.61
38780;BME280;29273;49.962;9.768;2022-09-02T00:22:24;99993.16;;;19.93;38.79
38780;BME280;29273;49.962;9.768;2022-09-02T00:24:49;99997.16;;;19.91;38.99
38780;BME280;29273;49.962;9.768;2022-09-02T00:27:15;99993.91;;;19.89;38.99
38780;BME280;29273;49.962;9.768;2022-09-02T00:29:40;99988.81;;;19.87;39.22
38780;BME280;29273;49.962;9.768;2022-09-02T00:32:06;99991.75;;;19.86;39.05
38780;BME280;29273;49.962;9.768;2022-09-02T00:34:31;99986.88;;;19.83;39.07
38780;BME280;29273;49.962;9.768;2022-09-02T00:36:57;99987.13;;;19.81;38.97
38780;BME280;29273;49.962;9.768;2022-09-02T00:39:23;99982.84;;;19.80;39.19
38780;BME280;29273;49.962;9.768;2022-09-02T00:41:48;99981.47;;;19.77;38.90
38780;BME280;29273;49.962;9.768;2022-09-02T00:44:16;99979.59;;;19.78;38.75
38780;BME280;29273;49.962;9.768;2022-09-02T00:46:42;99974.16;;;19.73;39.15
38780;BME280;29273;49.962;9.768;2022-09-02T00:49:25;99978.00;;;19.77;37.80
38780;BME280;29273;49.962;9.768;2022-09-02T00:54:21;99971.72;;;19.71;38.78
38780;BME280;29273;49.962;9.768;2022-09-02T00:56:49;99968.75;;;19.68;39.25
38780;BME280;29273;49.962;9.768;2022-09-02T00:59:26;99972.56;;;19.72;38.45
38780;BME280;29273;49.962;9.768;2022-09-02T01:01:54;99971.94;;;19.65;39.40
38780;BME280;29273;49.962;9.768;2022-09-02T01:04:20;99971.13;;;19.64;39.51
38780;BME280;29273;49.962;9.768;2022-09-02T01:06:46;99970.34;;;19.64;39.56
38780;BME280;29273;49.962;9.768;2022-09-02T01:09:14;99971.44;;;19.68;38.76
38780;BME280;29273;49.962;9.768;2022-09-02T01:11:46;99968.50;;;19.69;38.80
38780;BME280;29273;49.962;9.768;2022-09-02T01:14:13;99972.78;;;19.65;39.58
38780;BME280;29273;49.962;9.768;2022-09-02T01:16:42;99970.13;;;19.70;39.24
38780;BME280;29273;49.962;9.768;2022-09-02T01:19:15;99964.22;;;19.73;38.79
38780;BME280;29273;49.962;9.768;2022-09-02T01:21:46;99971.22;;;19.74;38.95
38780;BME280;29273;49.962;9.768;2022-09-02T01:24:12;99969.88;;;19.72;39.52
38780;BME280;29273;49.962;9.768;2022-09-02T01:26:37;99972.28;;;19.73;39.58
38780;BME280;29273;49.962;9.768;2022-09-02T01:29:03;99972.03;;;19.75;39.70
38780;BME280;29273;49.962;9.768;2022-09-02T01:31:28;99973.66;;;19.76;39.75
38780;BME280;29273;49.962;9.768;2022-09-02T01:33:54;99966.97;;;19.78;39.62
38780;BME280;29273;49.962;9.768;2022-09-02T01:36:20;99964.84;;;19.81;39.37
38780;BME280;29273;49.962;9.768;2022-09-02T01:38:45;99964.31;;;19.84;39.47
38780;BME280;29273;49.962;9.768;2022-09-02T01:41:11;99960.28;;;19.86;39.41
38780;BME280;29273;49.962;9.768;2022-09-02T01:43:37;99958.16;;;19.88;39.36
38780;BME280;29273;49.962;9.768;2022-09-02T01:46:03;99958.72;;;19.90;39.14
38780;BME280;29273;49.962;9.768;2022-09-02T01:48:30;99955.78;;;19.92;39.36
38780;BME280;29273;49.962;9.768;2022-09-02T01:50:58;99953.13;;;19.97;39.24
38780;BME280;29273;49.962;9.768;2022-09-02T01:53:24;99949.84;;;19.95;39.31
38780;BME280;29273;49.962;9.768;2022-09-02T01:55:51;99955.22;;;19.95;39.11
38780;BME280;29273;49.962;9.768;2022-09-02T01:58:17;99954.44;;;19.94;39.13
38780;BME280;29273;49.962;9.768;2022-09-02T02:00:44;99951.50;;;19.96;39.58
38780;BME280;29273;49.962;9.768;2022-09-02T02:03:09;99957.91;;;19.95;39.25
38780;BME280;29273;49.962;9.768;2022-09-02T02:05:35;99957.13;;;19.94;39.16
38780;BME280;29273;49.962;9.768;2022-09-02T02:08:02;99957.13;;;19.94;39.55
38780;BME280;29273;49.962;9.768;2022-09-02T02:10:28;99956.31;;;19.94;39.43
38780;BME280;29273;49.962;9.768;2022-09-02T02:12:53;99966.28;;;19.93;39.37
38780;BME280;29273;49.962;9.768;2022-09-02T02:15:21;99949.56;;;19.91;39.35
38780;BME280;29273;49.962;9.768;2022-09-02T02:17:47;99953.34;;;19.90;39.42
38780;BME280;29273;49.962;9.768;2022-09-02T02:20:15;99950.41;;;19.92;39.05
38780;BME280;29273;49.962;9.768;2022-09-02T02:22:42;99949.28;;;19.88;39.42
38780;BME280;29273;49.962;9.768;2022-09-02T02:25:09;99951.44;;;19.86;39.59
38780;BME280;29273;49.962;9.768;2022-09-02T02:27:36;99952.75;;;19.83;39.67
38780;BME280;29273;49.962;9.768;2022-09-02T02:30:05;99954.88;;;19.81;39.79
38780;BME280;29273;49.962;9.768;2022-09-02T02:32:31;99944.66;;;19.78;39.89
38780;BME280;29273;49.962;9.768;2022-09-02T02:34:59;99947.84;;;19.75;39.97
38780;BME280;29273;49.962;9.768;2022-09-02T02:37:26;99949.72;;;19.74;39.67
38780;BME280;29273;49.962;9.768;2022-09-02T02:39:52;99949.16;;;19.72;39.81
38780;BME280;29273;49.962;9.768;2022-09-02T02:42:18;99947.78;;;19.70;39.94
38780;BME280;29273;49.962;9.768;2022-09-02T02:44:45;99950.19;;;19.66;40.14
38780;BME280;29273;49.962;9.768;2022-09-02T02:47:11;99945.06;;;19.65;40.10
38780;BME280;29273;49.962;9.768;2022-09-02T02:49:39;99949.66;;;19.64;40.10
38780;BME280;29273;49.962;9.768;2022-09-02T02:52:07;99953.09;;;19.59;40.20
38780;BME280;29273;49.962;9.768;2022-09-02T02:54:32;99947.44;;;19.56;40.11
38780;BME280;29273;49.962;9.768;2022-09-02T02:56:59;99951.19;;;19.55;40.07
38780;BME280;29273;49.962;9.768;2022-09-02T02:59:24;99950.34;;;19.49;40.28
38780;BME280;29273;49.962;9.768;2022-09-02T03:01:51;99948.47;;;19.50;40.30
38780;BME280;29273;49.962;9.768;2022-09-02T03:04:17;99950.06;;;19.46;40.43
38780;BME280;29273;49.962;9.768;2022-09-02T03:06:42;99950.56;;;19.42;40.49
38780;BME280;29273;49.962;9.768;2022-09-02T03:09:08;99944.66;;;19.40;40.48
38780;BME280;29273;49.962;9.768;2022-09-02T03:11:36;99943.53;;;19.36;40.79
38780;BME280;29273;49.962;9.768;2022-09-02T03:14:01;99943.50;;;19.31;40.45
38780;BME280;29273;49.962;9.768;2022-09-02T03:16:27;99935.13;;;19.28;40.61
38780;BME280;29273;49.962;9.768;2022-09-02T03:18:53;99943.94;;;19.23;40.44
38780;BME280;29273;49.962;9.768;2022-09-02T03:21:19;99944.47;;;19.20;40.54
38780;BME280;29273;49.962;9.768;2022-09-02T03:23:46;99939.63;;;19.17;40.51
38780;BME280;29273;49.962;9.768;2022-09-02T03:26:15;99944.16;;;19.16;40.19
38780;BME280;29273;49.962;9.768;2022-09-02T03:28:42;99939.00;;;19.10;41.00
38780;BME280;29273;49.962;9.768;2022-09-02T03:31:13;99937.16;;;19.10;40.04
38780;BME280;29273;49.962;9.768;2022-09-02T03:33:39;99935.44;;;18.99;40.91
38780;BME280;29273;49.962;9.768;2022-09-02T03:36:05;99931.63;;;18.95;40.99
38780;BME280;29273;49.962;9.768;2022-09-02T03:38:33;99931.88;;;18.93;40.49
38780;BME280;29273;49.962;9.768;2022-09-02T03:41:01;99928.59;;;18.86;41.03
38780;BME280;29273;49.962;9.768;2022-09-02T03:43:26;99921.25;;;18.81;41.15
38780;BME280;29273;49.962;9.768;2022-09-02T03:45:53;99924.69;;;18.77;41.22
38780;BME280;29273;49.962;9.768;2022-09-02T03:48:19;99925.22;;;18.74;41.11
38780;BME280;29273;49.962;9.768;2022-09-02T03:50:47;99920.88;;;18.67;41.30
38780;BME280;29273;49.962;9.768;2022-09-02T03:53:17;99924.31;;;18.63;41.36
38780;BME280;29273;49.962;9.768;2022-09-02T03:55:42;99917.84;;;18.59;41.46
38780;BME280;29273;49.962;9.768;2022-09-02T03:58:11;99920.22;;;18.55;41.60
38780;BME280;29273;49.962;9.768;2022-09-02T04:00:38;99917.19;;;18.52;41.73
38780;BME280;29273;49.962;9.768;2022-09-02T04:03:05;99923.09;;;18.48;41.83
38780;BME280;29273;49.962;9.768;2022-09-02T04:05:32;99922.50;;;18.46;41.82
38780;BME280;29273;49.962;9.768;2022-09-02T04:07:59;99924.63;;;18.44;41.80
38780;BME280;29273;49.962;9.768;2022-09-02T04:10:26;99920.84;;;18.40;41.98
38780;BME280;29273;49.962;9.768;2022-09-02T04:12:53;99921.34;;;18.37;41.93
38780;BME280;29273;49.962;9.768;2022-09-02T04:15:19;99920.75;;;18.35;41.79
38780;BME280;29273;49.962;9.768;2022-09-02T04:17:46;99918.84;;;18.30;41.87
38780;BME280;29273;49.962;9.768;2022-09-02T04:20:14;99916.66;;;18.27;41.88
38780;BME280;29273;49.962;9.768;2022-09-02T04:22:41;99919.28;;;18.22;42.01
38780;BME280;29273;49.962;9.768;2022-09-02T04:25:07;99929.72;;;18.19;41.80
38780;BME280;29273;49.962;9.768;2022-09-02T04:27:34;99924.00;;;18.15;41.66
38780;BME280;29273;49.962;9.768;2022-09-02T04:30:00;99927.47;;;18.10;42.02
38780;BME280;29273;49.962;9.768;2022-09-02T04:32:27;99926.31;;;18.06;41.81
38780;BME280;29273;49.962;9.768;2022-09-02T04:34:52;99930.31;;;18.04;42.14
38780;BME280;29273;49.962;9.768;2022-09-02T04:37:19;99927.31;;;18.00;41.94
38780;BME280;29273;49.962;9.768;2022-09-02T04:39:45;99931.53;;;17.96;42.26
38780;BME280;29273;49.962;9.768;2022-09-02T04:42:11;99926.66;;;17.93;42.00
38780;BME280;29273;49.962;9.768;2022-09-02T04:44:37;99926.13;;;17.91;41.96
38780;BME280;29273;49.962;9.768;2022-09-02T04:47:03;99933.84;;;17.87;42.29
38780;BME280;29273;49.962;9.768;2022-09-02T04:49:29;99925.22;;;17.85;42.35
38780;BME280;29273;49.962;9.768;2022-09-02T04:51:58;99935.09;;;17.85;42.09
38780;BME280;29273;49.962;9.768;2022-09-02T04:54:26;99933.50;;;17.84;41.56
38780;BME280;29273;49.962;9.768;2022-09-02T04:56:54;99938.78;;;17.79;42.31
38780;BME280;29273;49.962;9.768;2022-09-02T04:59:21;99942.50;;;17.78;42.34
38780;BME280;29273;49.962;9.768;2022-09-02T05:01:57;99946.47;;;17.75;42.63
38780;BME280;29273;49.962;9.768;2022-09-02T05:04:26;99942.44;;;17.72;42.42
38780;BME280;29273;49.962;9.768;2022-09-02T05:06:52;99942.69;;;17.71;42.68
38780;BME280;29273;49.962;9.768;2022-09-02T05:09:20;99948.84;;;17.71;42.94
38780;BME280;29273;49.962;9.768;2022-09-02T05:11:50;99953.06;;;17.67;42.57
38780;BME280;29273;49.962;9.768;2022-09-02T05:14:19;99945.03;;;17.67;42.99
38780;BME280;29273;49.962;9.768;2022-09-02T05:16:46;99950.88;;;17.64;43.20
38780;BME280;29273;49.962;9.768;2022-09-02T05:19:15;99940.66;;;17.61;43.16
38780;BME280;29273;49.962;9.768;2022-09-02T05:21:45;99942.78;;;17.59;43.50
38780;BME280;29273;49.962;9.768;2022-09-02T05:24:17;99945.69;;;17.57;43.53
38780;BME280;29273;49.962;9.768;2022-09-02T05:26:43;99946.50;;;17.58;43.46
38780;BME280;29273;49.962;9.768;2022-09-02T05:29:11;99948.13;;;17.59;43.63
38780;BME280;29273;49.962;9.768;2022-09-02T05:31:38;99950.81;;;17.59;43.80
38780;BME280;29273;49.962;9.768;2022-09-02T05:34:07;99947.06;;;17.60;43.54
38780;BME280;29273;49.962;9.768;2022-09-02T05:36:33;99948.69;;;17.61;44.37
38780;BME280;29273;49.962;9.768;2022-09-02T05:38:59;99950.09;;;17.64;44.30
38780;BME280;29273;49.962;9.768;2022-09-02T05:41:26;99950.88;;;17.64;44.72
38780;BME280;29273;49.962;9.768;2022-09-02T05:43:59;99952.00;;;17.68;43.98
38780;BME280;29273;49.962;9.768;2022-09-02T05:46:26;99950.41;;;17.67;44.77
38780;BME280;29273;49.962;9.768;2022-09-02T05:48:55;99947.22;;;17.70;44.51
38780;BME280;29273;49.962;9.768;2022-09-02T05:51:50;99952.91;;;17.74;44.49
38780;BME280;29273;49.962;9.768;2022-09-02T05:54:28;99955.66;;;17.79;43.95
38780;BME280;29273;49.962;9.768;2022-09-02T05:56:58;99951.91;;;17.80;44.66
38780;BME280;29273;49.962;9.768;2022-09-02T05:59:26;99957.25;;;17.80;44.55
38780;BME280;29273;49.962;9.768;2022-09-02T06:01:55;99958.91;;;17.81;45.34
38780;BME280;29273;49.962;9.768;2022-09-02T06:04:21;99959.22;;;17.85;44.81
38780;BME280;29273;49.962;9.768;2022-09-02T06:06:48;99954.19;;;17.88;44.62
38780;BME280;29273;49.962;9.768;2022-09-02T06:09:19;99959.38;;;17.95;44.06
38780;BME280;29273;49.962;9.768;2022-09-02T06:11:46;99957.53;;;17.96;44.60
38780;BME280;29273;49.962;9.768;2022-09-02T06:14:18;99959.22;;;18.02;44.49
38780;BME280;29273;49.962;9.768;2022-09-02T06:16:45;99952.81;;;18.03;44.31
38780;BME280;29273;49.962;9.768;2022-09-02T06:19:19;99962.78;;;18.07;44.46
38780;BME280;29273;49.962;9.768;2022-09-02T06:21:47;99958.53;;;18.11;44.45
38780;BME280;29273;49.962;9.768;2022-09-02T06:24:13;99958.28;;;18.13;44.46
38780;BME280;29273;49.962;9.768;2022-09-02T06:26:40;99955.69;;;18.18;44.59
38780;BME280;29273;49.962;9.768;2022-09-02T06:29:07;99949.56;;;18.23;44.54
38780;BME280;29273;49.962;9.768;2022-09-02T06:31:34;99949.88;;;18.26;44.24
38780;BME280;29273;49.962;9.768;2022-09-02T06:33:59;99944.03;;;18.29;43.93
38780;BME280;29273;49.962;9.768;2022-09-02T06:36:28;99943.03;;;18.36;43.93
38780;BME280;29273;49.962;9.768;2022-09-02T06:38:59;99950.91;;;18.42;43.33
38780;BME280;29273;49.962;9.768;2022-09-02T06:41:28;99942.91;;;18.47;43.05
38780;BME280;29273;49.962;9.768;2022-09-02T06:43:58;99948.56;;;18.51;43.19
38780;BME280;29273;49.962;9.768;2022-09-02T06:46:31;99945.94;;;18.56;43.09
38780;BME280;29273;49.962;9.768;2022-09-02T06:49:00;99945.69;;;18.58;43.67
38780;BME280;29273;49.962;9.768;2022-09-02T06:51:30;99947.94;;;18.66;42.86
38780;BME280;29273;49.962;9.768;2022-09-02T06:53:59;99951.19;;;18.68;43.29
38780;BME280;29273;49.962;9.768;2022-09-02T06:56:27;99944.25;;;18.72;42.55
38780;BME280;29273;49.962;9.768;2022-09-02T06:58:53;99943.47;;;18.77;43.17
38780;BME280;29273;49.962;9.768;2022-09-02T07:01:23;99946.56;;;18.85;42.75
38780;BME280;29273;49.962;9.768;2022-09-02T07:03:49;99944.69;;;18.86;42.48
38780;BME280;29273;49.962;9.768;2022-09-02T07:06:40;99948.56;;;18.95;42.17
38780;BME280;29273;49.962;9.768;2022-09-02T07:09:08;99944.53;;;18.98;42.15
38780;BME280;29273;49.962;9.768;2022-09-02T07:11:36;99947.78;;;19.00;42.46
38780;BME280;29273;49.962;9.768;2022-09-02T07:14:02;99952.38;;;19.04;42.53
38780;BME280;29273;49.962;9.768;2022-09-02T07:16:31;99954.06;;;19.11;41.94
38780;BME280;29273;49.962;9.768;2022-09-02T07:18:58;99952.47;;;19.15;42.15
38780;BME280;29273;49.962;9.768;2022-09-02T07:21:27;99958.72;;;19.20;41.96
38780;BME280;29273;49.962;9.768;2022-09-02T07:23:54;99947.47;;;19.23;41.83
38780;BME280;29273;49.962;9.768;2022-09-02T07:26:20;99947.50;;;19.29;41.67
38780;BME280;29273;49.962;9.768;2022-09-02T07:28:48;99942.44;;;19.32;41.64
38780;BME280;29273;49.962;9.768;2022-09-02T07:31:15;99943.28;;;19.38;41.45
38780;BME280;29273;49.962;9.768;2022-09-02T07:33:42;99945.19;;;19.42;41.34
38780;BME280;29273;49.962;9.768;2022-09-02T07:36:11;99944.19;;;19.49;41.47
38780;BME280;29273;49.962;9.768;2022-09-02T07:38:38;99937.47;;;19.51;41.17
38780;BME280;29273;49.962;9.768;2022-09-02T07:41:05;99934.00;;;19.56;41.10
38780;BME280;29273;49.962;9.768;2022-09-02T07:43:33;99936.72;;;19.61;40.79
38780;BME280;29273;49.962;9.768;2022-09-02T07:46:00;99935.69;;;19.67;40.83
38780;BME280;29273;49.962;9.768;2022-09-02T07:48:28;99940.63;;;19.75;40.97
38780;BME280;29273;49.962;9.768;2022-09-02T07:50:54;99930.41;;;19.77;40.54
38780;BME280;29273;49.962;9.768;2022-09-02T07:53:21;99924.81;;;19.84;40.29
38780;BME280;29273;49.962;9.768;2022-09-02T07:55:48;99924.84;;;19.89;40.24
38780;BME280;29273;49.962;9.768;2022-09-02T07:58:15;99927.03;;;19.98;40.19
38780;BME280;29273;49.962;9.768;2022-09-02T08:00:43;99921.66;;;19.98;39.85
38780;BME280;29273;49.962;9.768;2022-09-02T08:03:10;99923.84;;;20.06;39.94
38780;BME280;29273;49.962;9.768;2022-09-02T08:05:41;99923.59;;;20.07;40.01
38780;BME280;29273;49.962;9.768;2022-09-02T08:08:09;99928.47;;;20.15;40.11
38780;BME280;29273;49.962;9.768;2022-09-02T08:10:36;99929.28;;;20.21;39.80
38780;BME280;29273;49.962;9.768;2022-09-02T08:13:02;99923.13;;;20.26;39.84
38780;BME280;29273;49.962;9.768;2022-09-02T08:15:31;99919.94;;;20.29;39.63
38780;BME280;29273;49.962;9.768;2022-09-02T08:17:58;99918.06;;;20.34;39.77
38780;BME280;29273;49.962;9.768;2022-09-02T08:20:24;99921.84;;;20.39;39.60
38780;BME280;29273;49.962;9.768;2022-09-02T08:22:50;99922.13;;;20.42;39.40
38780;BME280;29273;49.962;9.768;2022-09-02T08:25:16;99926.72;;;20.47;39.42
38780;BME280;29273;49.962;9.768;2022-09-02T08:27:43;99917.56;;;20.53;39.49
38780;BME280;29273;49.962;9.768;2022-09-02T08:30:09;99920.53;;;20.57;39.08
38780;BME280;29273;49.962;9.768;2022-09-02T08:32:36;99915.19;;;20.62;39.25
38780;BME280;29273;49.962;9.768;2022-09-02T08:35:03;99914.13;;;20.68;39.26
38780;BME280;29273;49.962;9.768;2022-09-02T08:37:30;99909.84;;;20.72;39.40
38780;BME280;29273;49.962;9.768;2022-09-02T08:39:56;99909.06;;;20.77;39.13
38780;BME280;29273;49.962;9.768;2022-09-02T08:42:22;99904.75;;;20.81;39.03
38780;BME280;29273;49.962;9.768;2022-09-02T08:44:53;99913.38;;;20.93;39.15
38780;BME280;29273;49.962;9.768;2022-09-02T08:47:24;99906.38;;;20.97;39.34
38780;BME280;29273;49.962;9.768;2022-09-02T08:49:57;99897.78;;;21.00;39.31
38780;BME280;29273;49.962;9.768;2022-09-02T08:52:38;99891.28;;;21.06;39.06
38780;BME280;29273;49.962;9.768;2022-09-02T08:55:09;99887.53;;;21.07;39.20
38780;BME280;29273;49.962;9.768;2022-09-02T08:57:36;99889.16;;;21.09;38.67
38780;BME280;29273;49.962;9.768;2022-09-02T09:00:03;99887.53;;;21.13;38.59
38780;BME280;29273;49.962;9.768;2022-09-02T09:03:01;99888.88;;;21.20;39.29
38780;BME280;29273;49.962;9.768;2022-09-02T09:11:00;99890.22;;;21.38;39.07
38780;BME280;29273;49.962;9.768;2022-09-02T09:16:33;99884.84;;;21.49;38.85
38780;BME280;29273;49.962;9.768;2022-09-02T09:19:10;99878.34;;;21.55;38.96
38780;BME280;29273;49.962;9.768;2022-09-02T09:21:36;99879.19;;;21.55;37.82
38780;BME280;29273;49.962;9.768;2022-09-02T09:24:24;99879.94;;;21.66;38.24
38780;BME280;29273;49.962;9.768;2022-09-02T09:26:52;99875.38;;;21.67;37.67
38780;BME280;29273;49.962;9.768;2022-09-02T09:29:18;99871.03;;;21.71;36.90
38780;BME280;29273;49.962;9.768;2022-09-02T09:31:48;99868.03;;;21.83;37.81
38780;BME280;29273;49.962;9.768;2022-09-02T09:34:17;99856.72;;;21.86;37.45
38780;BME280;29273;49.962;9.768;2022-09-02T09:36:45;99859.91;;;21.93;37.20
38780;BME280;29273;49.962;9.768;2022-09-02T09:39:27;99855.56;;;22.02;37.62
38780;BME280;29273;49.962;9.768;2022-09-02T09:42:02;99857.44;;;22.07;37.59
38780;BME280;29273;49.962;9.768;2022-09-02T09:44:43;99842.84;;;22.13;37.64
38780;BME280;29273;49.962;9.768;2022-09-02T09:47:20;99844.44;;;22.19;37.55
38780;BME280;29273;49.962;9.768;2022-09-02T09:49:49;99844.94;;;22.21;36.12
38780;BME280;29273;49.962;9.768;2022-09-02T09:52:23;99843.84;;;22.32;36.86
38780;BME280;29273;49.962;9.768;2022-09-02T09:57:41;99830.84;;;22.40;35.46
38780;BME280;29273;49.962;9.768;2022-09-02T10:00:30;99825.41;;;22.45;36.64
38780;BME280;29273;49.962;9.768;2022-09-02T10:03:00;99817.28;;;22.55;36.14
38780;BME280;29273;49.962;9.768;2022-09-02T10:05:30;99819.66;;;22.62;35.86
38780;BME280;29273;49.962;9.768;2022-09-02T10:08:03;99810.44;;;22.63;34.95
38780;BME280;29273;49.962;9.768;2022-09-02T10:10:31;99809.84;;;22.71;34.98
38780;BME280;29273;49.962;9.768;2022-09-02T10:13:00;99813.00;;;22.78;35.67
38780;BME280;29273;49.962;9.768;2022-09-02T10:18:52;99817.25;;;22.89;35.91
38780;BME280;29273;49.962;9.768;2022-09-02T10:24:36;99801.97;;;23.09;36.05
38780;BME280;29273;49.962;9.768;2022-09-02T10:27:11;99814.59;;;23.19;35.04
38780;BME280;29273;49.962;9.768;2022-09-02T10:30:03;99805.63;;;23.23;35.15
38780;BME280;29273;49.962;9.768;2022-09-02T10:32:40;99804.41;;;23.35;34.04
38780;BME280;29273;49.962;9.768;2022-09-02T10:38:00;99798.31;;;23.48;33.92
38780;BME280;29273;49.962;9.768;2022-09-02T10:41:00;99792.06;;;23.53;34.55
38780;BME280;29273;49.962;9.768;2022-09-02T10:46:17;99787.72;;;23.76;33.02
38780;BME280;29273;49.962;9.768;2022-09-02T10:51:36;99774.84;;;23.92;32.17
38780;BME280;29273;49.962;9.768;2022-09-02T10:56:42;99764.31;;;24.09;32.17
38780;BME280;29273;49.962;9.768;2022-09-02T10:59:13;99765.28;;;24.18;31.48
38780;BME280;29273;49.962;9.768;2022-09-02T11:01:51;99764.31;;;24.28;33.01
38780;BME280;29273;49.962;9.768;2022-09-02T11:04:43;99762.53;;;24.37;32.19
38780;BME280;29273;49.962;9.768;2022-09-02T11:07:15;99773.50;;;24.46;29.92
38780;BME280;29273;49.962;9.768;2022-09-02T11:09:47;99755.53;;;24.55;30.78
38780;BME280;29273;49.962;9.768;2022-09-02T11:12:20;99762.03;;;24.35;30.72
38780;BME280;29273;49.962;9.768;2022-09-02T11:17:50;99758.06;;;24.66;32.17
38780;BME280;29273;49.962;9.768;2022-09-02T11:20:29;99762.19;;;24.77;32.04
38780;BME280;29273;49.962;9.768;2022-09-02T11:23:06;99755.38;;;24.80;30.61
38780;BME280;29273;49.962;9.768;2022-09-02T11:25:41;99751.38;;;24.77;29.31
38780;BME280;29273;49.962;9.768;2022-09-02T11:28:32;99758.41;;;24.78;30.33
38780;BME280;29273;49.962;9.768;2022-09-02T11:31:06;99753.47;;;24.80;28.56
38780;BME280;29273;49.962;9.768;2022-09-02T11:36:05;99747.03;;;24.76;27.61
38780;BME280;29273;49.962;9.768;2022-09-02T11:38:52;99747.78;;;24.82;30.10
38780;BME280;29273;49.962;9.768;2022-09-02T11:44:00;99742.75;;;24.89;29.40
38780;BME280;29273;49.962;9.768;2022-09-02T11:52:03;99736.94;;;24.96;30.34
38780;BME280;29273;49.962;9.768;2022-09-02T11:54:34;99727.72;;;24.97;28.53
38780;BME280;29273;49.962;9.768;2022-09-02T11:57:03;99723.91;;;24.98;28.07
38780;BME280;29273;49.962;9.768;2022-09-02T12:02:45;99702.13;;;25.03;29.18
38780;BME280;29273;49.962;9.768;2022-09-02T12:07:57;99708.38;;;25.03;26.81
38780;BME280;29273;49.962;9.768;2022-09-02T12:15:37;99702.66;;;25.19;27.10
38780;BME280;29273;49.962;9.768;2022-09-02T12:18:10;99700.53;;;25.29;28.38
38780;BME280;29273;49.962;9.768;2022-09-02T12:23:07;99699.03;;;25.37;26.85
38780;BME280;29273;49.962;9.768;2022-09-02T12:25:47;99698.34;;;25.45;28.59
38780;BME280;29273;49.962;9.768;2022-09-02T12:28:20;99697.84;;;25.43;26.88
38780;BME280;29273;49.962;9.768;2022-09-02T12:33:51;99702.75;;;25.55;28.54
38780;BME280;29273;49.962;9.768;2022-09-02T12:45:10;99682.31;;;25.72;26.92
38780;BME280;29273;49.962;9.768;2022-09-02T12:47:57;99673.34;;;25.71;27.66
38780;BME280;29273;49.962;9.768;2022-09-02T12:53:09;99663.03;;;25.73;27.72
38780;BME280;29273;49.962;9.768;2022-09-02T12:55:39;99654.06;;;25.73;25.79
38780;BME280;29273;49.962;9.768;2022-09-02T12:58:13;99657.47;;;25.78;25.87
38780;BME280;29273;49.962;9.768;2022-09-02T13:00:59;99656.88;;;25.81;26.90
38780;BME280;29273;49.962;9.768;2022-09-02T13:03:50;99650.63;;;25.81;27.12
38780;BME280;29273;49.962;9.768;2022-09-02T13:06:31;99655.31;;;25.89;26.80
38780;BME280;29273;49.962;9.768;2022-09-02T13:12:16;99644.56;;;25.98;26.82
38780;BME280;29273;49.962;9.768;2022-09-02T13:14:53;99645.84;;;26.00;26.06
38780;BME280;29273;49.962;9.768;2022-09-02T13:20:36;99650.06;;;26.07;27.22
38780;BME280;29273;49.962;9.768;2022-09-02T13:26:19;99644.84;;;26.19;26.26
38780;BME280;29273;49.962;9.768;2022-09-02T13:32:12;99635.97;;;26.27;26.75
38780;BME280;29273;49.962;9.768;2022-09-02T13:34:41;99625.03;;;26.10;27.56
38780;BME280;29273;49.962;9.768;2022-09-02T13:40:15;99631.75;;;26.44;25.95
38780;BME280;29273;49.962;9.768;2022-09-02T13:42:50;99628.91;;;26.49;25.93
38780;BME280;29273;49.962;9.768;2022-09-02T13:45:19;99633.69;;;26.52;24.88
38780;BME280;29273;49.962;9.768;2022-09-02T13:47:47;99623.00;;;26.55;24.20
38780;BME280;29273;49.962;9.768;2022-09-02T13:50:19;99621.19;;;26.65;25.04
38780;BME280;29273;49.962;9.768;2022-09-02T13:52:49;99623.56;;;26.66;24.25
38780;BME280;29273;49.962;9.768;2022-09-02T13:55:16;99620.22;;;26.69;23.74
38780;BME280;29273;49.962;9.768;2022-09-02T13:57:54;99609.88;;;26.80;25.23
38780;BME280;29273;49.962;9.768;2022-09-02T14:00:28;99610.84;;;26.84;25.12
38780;BME280;29273;49.962;9.768;2022-09-02T14:03:00;99602.38;;;26.86;23.58
38780;BME280;29273;49.962;9.768;2022-09-02T14:05:27;99607.50;;;26.87;23.30
38780;BME280;29273;49.962;9.768;2022-09-02T14:07:58;99590.88;;;26.98;24.54
38780;BME280;29273;49.962;9.768;2022-09-02T14:10:26;99593.28;;;26.99;23.58
38780;BME280;29273;49.962;9.768;2022-09-02T14:12:54;99582.59;;;27.03;22.98
38780;BME280;29273;49.962;9.768;2022-09-02T14:15:26;99588.06;;;27.11;24.13
38780;BME280;29273;49.962;9.768;2022-09-02T14:20:38;99569.50;;;27.13;23.93
38780;BME280;29273;49.962;9.768;2022-09-02T14:23:05;99573.50;;;27.16;22.75
38780;BME280;29273;49.962;9.768;2022-09-02T14:25:37;99567.75;;;27.26;24.44
38780;BME280;29273;49.962;9.768;2022-09-02T14:28:17;99564.06;;;27.05;25.47
38780;BME280;29273;49.962;9.768;2022-09-02T14:31:02;99562.19;;;27.31;24.64
38780;BME280;29273;49.962;9.768;2022-09-02T14:36:06;99562.50;;;27.47;24.08
38780;BME280;29273;49.962;9.768;2022-09-02T14:44:12;99562.31;;;27.70;23.84
38780;BME280;29273;49.962;9.768;2022-09-02T14:46:44;99561.34;;;27.83;23.66
38780;BME280;29273;49.962;9.768;2022-09-02T14:49:24;99553.66;;;27.94;24.40
38780;BME280;29273;49.962;9.768;2022-09-02T14:51:52;99554.63;;;27.98;22.08